Terminal Aerodrome Forecast
Issued by NWS

Home | Current Version | Previous Version | Text Only | Print | Product List | Glossary On
Versions: 1 2 3 4 5 6 7 8 9 10 11 12 13 14 15 16 17 18 19 20 21 22 23 24 25 26 27 28
285
FTUS43 KABR 241857 AAA
TAFPIR
TAF AMD
KPIR 241857Z 2419/2518 03012G19KT 1/2SM SN FZFG VV007
      TEMPO 2419/2423 1/4SM +SN BLSN VV003
     FM250200 34015KT 1SM -SN BLSN OVC008
     FM251100 33019G30KT 1 1/2SM BLSN OVC008
     FM251300 33019KT 2SM BLSN OVC008
     FM251700 32015KT 3SM BLSN OVC010=

USA.gov is the U.S. government's official web portal to all federal, state and local government web resources and services.